Time;durP1;ratioP1;P1;durP2;ratioP2;P2;SDS_P1;SDS_P2;PMS_P1;PMS_P2;Temp;Humidity;BMP_temperature;BMP_pressure;BME280_temperature;BME280_humidity;BME280_pressure;Samples;Min_cycle;Max_cycle;Signal;HPM_P1;HPM_P2
2022/05/09 00:00:18;;;;;;;;;;;17.80;54.30;;;;;;2012958;28;19909;-73
2022/05/09 00:01:16;;;;;;;;;;;17.80;54.20;;;;;;2012640;28;20115;-72
2022/05/09 00:02:15;;;;;;;;;;;17.80;54.30;;;;;;2012417;28;20008;-73
2022/05/09 00:03:13;;;;;;;;;;;17.90;54.40;;;;;;2012916;28;19960;-74
2022/05/09 00:04:12;;;;;;;;;;;17.80;54.90;;;;;;2012641;28;19917;-74
2022/05/09 00:05:13;;;;;;;;;;;17.80;54.10;;;;;;2012676;28;19909;-73
2022/05/09 00:06:12;;;;;;;;;;;17.80;54.10;;;;;;2012226;28;19932;-73
2022/05/09 00:07:10;;;;;;;;;;;17.80;54.10;;;;;;2012661;28;19998;-73
2022/05/09 00:08:08;;;;;;;;;;;17.80;54.00;;;;;;2012705;28;20363;-72
2022/05/09 00:09:07;;;;;;;;;;;17.80;54.00;;;;;;2012771;28;19915;-75
2022/05/09 00:10:07;;;;;;;;;;;17.80;54.30;;;;;;2012846;28;19909;-73
2022/05/09 00:11:06;;;;;;;;;;;17.80;54.50;;;;;;2012630;28;20327;-73
2022/05/09 00:12:05;;;;;;;;;;;17.80;54.50;;;;;;2012659;28;19913;-73
2022/05/09 00:13:03;;;;;;;;;;;17.80;54.50;;;;;;2012696;28;20343;-72
2022/05/09 00:14:02;;;;;;;;;;;17.80;54.40;;;;;;2012817;28;20266;-75
2022/05/09 00:15:01;;;;;;;;;;;17.80;54.40;;;;;;2012654;28;19909;-73
2022/05/09 00:15:59;;;;;;;;;;;17.80;54.40;;;;;;2012784;28;19919;-73
2022/05/09 00:16:58;;;;;;;;;;;17.80;54.40;;;;;;2012734;28;20380;-75
2022/05/09 00:17:57;;;;;;;;;;;17.80;54.30;;;;;;2012709;28;19917;-73
2022/05/09 00:18:55;;;;;;;;;;;17.80;54.40;;;;;;2012828;28;19999;-73
2022/05/09 00:19:54;;;;;;;;;;;17.80;54.30;;;;;;2012095;28;20343;-73
2022/05/09 00:20:52;;;;;;;;;;;17.80;54.30;;;;;;2012368;28;19916;-74
2022/05/09 00:21:52;;;;;;;;;;;17.80;54.30;;;;;;2012728;28;19909;-73
2022/05/09 00:22:53;;;;;;;;;;;17.80;54.30;;;;;;2012705;28;20004;-73
2022/05/09 00:23:51;;;;;;;;;;;17.80;54.40;;;;;;2012728;28;19913;-73
2022/05/09 00:24:50;;;;;;;;;;;17.80;54.30;;;;;;2012755;28;20399;-74
2022/05/09 00:25:48;;;;;;;;;;;17.80;54.40;;;;;;2012942;28;19909;-74
2022/05/09 00:26:48;;;;;;;;;;;17.80;54.40;;;;;;2012783;28;20357;-73
2022/05/09 00:27:46;;;;;;;;;;;17.80;54.30;;;;;;2012101;28;20040;-75
2022/05/09 00:28:45;;;;;;;;;;;17.80;54.40;;;;;;2012130;28;20376;-73
2022/05/09 00:29:43;;;;;;;;;;;17.80;54.50;;;;;;2012711;28;19910;-74
2022/05/09 00:30:42;;;;;;;;;;;17.80;54.40;;;;;;2020057;28;20011;-73
2022/05/09 00:31:43;;;;;;;;;;;17.80;54.50;;;;;;2020147;28;19983;-74
2022/05/09 00:32:41;;;;;;;;;;;17.80;54.30;;;;;;2012904;28;19959;-74
2022/05/09 00:33:40;;;;;;;;;;;17.80;54.30;;;;;;2012524;28;19909;-73
2022/05/09 00:34:38;;;;;;;;;;;17.80;54.30;;;;;;2012696;28;19916;-74
2022/05/09 00:35:37;;;;;;;;;;;17.80;54.30;;;;;;2012680;28;20254;-73
2022/05/09 00:36:36;;;;;;;;;;;17.80;54.30;;;;;;2012788;28;19909;-73
2022/05/09 00:37:35;;;;;;;;;;;17.80;54.30;;;;;;2012852;28;19916;-73
2022/05/09 00:38:34;;;;;;;;;;;17.80;54.30;;;;;;2012783;28;19949;-73
2022/05/09 00:39:35;;;;;;;;;;;17.80;54.40;;;;;;2012733;28;19920;-73
2022/05/09 00:40:35;;;;;;;;;;;17.80;54.30;;;;;;2012374;28;19909;-74
2022/05/09 00:41:40;;;;;;;;;;;17.80;54.30;;;;;;2011793;28;19995;-74
2022/05/09 00:42:49;;;;;;;;;;;17.80;54.30;;;;;;2012035;28;19913;-74
2022/05/09 00:43:48;;;;;;;;;;;17.80;54.40;;;;;;2012310;28;20024;-74
2022/05/09 00:44:47;;;;;;;;;;;17.80;54.40;;;;;;2012859;28;19909;-74
2022/05/09 00:45:47;;;;;;;;;;;17.70;54.30;;;;;;2012697;28;19909;-73
2022/05/09 00:46:47;;;;;;;;;;;17.70;54.30;;;;;;2012780;28;20003;-73
2022/05/09 00:47:46;;;;;;;;;;;17.80;54.40;;;;;;2012716;28;20245;-73
2022/05/09 00:48:44;;;;;;;;;;;17.80;54.40;;;;;;2012795;28;20040;-73
2022/05/09 00:49:46;;;;;;;;;;;17.80;54.40;;;;;;2012795;28;19909;-73
2022/05/09 00:50:45;;;;;;;;;;;17.70;54.30;;;;;;2012993;28;20401;-73
2022/05/09 00:51:47;;;;;;;;;;;17.70;54.30;;;;;;2012716;28;19932;-73
2022/05/09 00:52:48;;;;;;;;;;;17.70;54.30;;;;;;2012663;28;20356;-73
2022/05/09 00:53:48;;;;;;;;;;;17.80;54.40;;;;;;2012797;28;19913;-73
2022/05/09 00:55:06;;;;;;;;;;;17.70;54.30;;;;;;2012848;28;19909;-72
2022/05/09 00:56:10;;;;;;;;;;;17.70;54.30;;;;;;2008620;28;19917;-73
2022/05/09 00:57:15;;;;;;;;;;;17.70;54.40;;;;;;2012916;28;19917;-73
2022/05/09 00:58:17;;;;;;;;;;;17.70;54.40;;;;;;2013116;28;20349;-73
2022/05/09 00:59:17;;;;;;;;;;;17.70;54.40;;;;;;2013363;28;19940;-73
2022/05/09 01:00:17;;;;;;;;;;;17.70;54.40;;;;;;2012538;28;19910;-73
2022/05/09 01:01:16;;;;;;;;;;;17.70;54.30;;;;;;2012646;28;19917;-73
2022/05/09 01:02:15;;;;;;;;;;;17.70;54.30;;;;;;2012442;28;19944;-74
2022/05/09 01:03:20;;;;;;;;;;;17.70;54.30;;;;;;2012614;28;20319;-72
2022/05/09 01:04:21;;;;;;;;;;;17.70;54.40;;;;;;2012444;28;20489;-72
2022/05/09 01:05:19;;;;;;;;;;;17.80;54.40;;;;;;2012645;28;19910;-73
2022/05/09 01:06:18;;;;;;;;;;;17.70;54.30;;;;;;2012739;28;20382;-73
2022/05/09 01:07:16;;;;;;;;;;;17.70;54.30;;;;;;2012714;28;19910;-73
2022/05/09 01:08:14;;;;;;;;;;;17.70;54.30;;;;;;2012957;28;19909;-73
2022/05/09 01:09:13;;;;;;;;;;;17.70;54.30;;;;;;2013215;28;19909;-72
2022/05/09 01:10:14;;;;;;;;;;;17.70;54.20;;;;;;2013030;28;19910;-72
2022/05/09 01:11:17;;;;;;;;;;;17.70;54.30;;;;;;2013376;28;19941;-73
2022/05/09 01:12:19;;;;;;;;;;;17.70;54.30;;;;;;2013252;28;20383;-73
2022/05/09 01:13:20;;;;;;;;;;;17.70;54.30;;;;;;2013605;28;19910;-75
2022/05/09 01:14:24;;;;;;;;;;;17.70;54.30;;;;;;2013204;28;19939;-73
2022/05/09 01:15:22;;;;;;;;;;;17.70;54.30;;;;;;2013591;28;19920;-73
2022/05/09 01:16:21;;;;;;;;;;;17.70;54.30;;;;;;2013311;28;19916;-74
2022/05/09 01:17:22;;;;;;;;;;;17.70;54.30;;;;;;2013580;28;20386;-73
2022/05/09 01:18:20;;;;;;;;;;;17.70;54.30;;;;;;2014786;28;19991;-73
2022/05/09 01:19:19;;;;;;;;;;;17.70;54.30;;;;;;2014841;28;19909;-74
2022/05/09 01:20:17;;;;;;;;;;;17.70;54.30;;;;;;2014967;28;20012;-74
2022/05/09 01:21:27;;;;;;;;;;;17.70;54.30;;;;;;2014520;28;19928;-73
2022/05/09 01:22:30;;;;;;;;;;;17.70;54.30;;;;;;2014754;28;19909;-74
2022/05/09 01:23:32;;;;;;;;;;;17.70;54.30;;;;;;2014642;28;19936;-73
2022/05/09 01:24:30;;;;;;;;;;;17.70;54.30;;;;;;2014601;28;19963;-73
2022/05/09 01:25:29;;;;;;;;;;;17.70;54.30;;;;;;2014676;28;19910;-74
2022/05/09 01:26:28;;;;;;;;;;;17.70;54.30;;;;;;2014544;28;19964;-73
2022/05/09 01:27:26;;;;;;;;;;;17.70;54.20;;;;;;2014703;28;20065;-73
2022/05/09 01:28:25;;;;;;;;;;;17.70;54.20;;;;;;2021777;28;19913;-73
2022/05/09 01:29:27;;;;;;;;;;;17.70;54.20;;;;;;2021868;28;19908;-72
2022/05/09 01:30:31;;;;;;;;;;;17.70;54.20;;;;;;2015340;28;20016;-73
2022/05/09 01:31:30;;;;;;;;;;;17.70;54.20;;;;;;2015629;28;19905;-73
2022/05/09 01:32:35;;;;;;;;;;;17.70;54.20;;;;;;2016172;28;19940;-73
2022/05/09 01:33:38;;;;;;;;;;;17.70;54.20;;;;;;2016199;28;19909;-73
2022/05/09 01:34:37;;;;;;;;;;;17.70;54.20;;;;;;2018785;28;19920;-73
2022/05/09 01:35:38;;;;;;;;;;;17.70;54.30;;;;;;2020596;28;19909;-74
2022/05/09 01:36:36;;;;;;;;;;;17.70;54.20;;;;;;2019993;28;20027;-72
2022/05/09 01:37:36;;;;;;;;;;;17.70;54.20;;;;;;2017789;28;19909;-72
2022/05/09 01:38:38;;;;;;;;;;;17.70;54.20;;;;;;2016907;28;19963;-73
2022/05/09 01:39:36;;;;;;;;;;;17.70;54.20;;;;;;2016294;28;19909;-73
2022/05/09 01:40:35;;;;;;;;;;;17.70;54.20;;;;;;2016557;28;19922;-73
2022/05/09 01:41:41;;;;;;;;;;;17.70;54.20;;;;;;2016297;28;19948;-74
2022/05/09 01:42:40;;;;;;;;;;;17.70;54.20;;;;;;2015735;28;19916;-74
2022/05/09 01:43:40;;;;;;;;;;;17.70;54.30;;;;;;2016329;28;19941;-73
2022/05/09 01:44:39;;;;;;;;;;;17.70;54.20;;;;;;2017489;28;19956;-73
2022/05/09 01:45:37;;;;;;;;;;;17.70;54.30;;;;;;2016644;28;19916;-73
2022/05/09 01:49:29;;;;;;;;;;;17.70;54.30;;;;;;2016974;28;20337;-73
2022/05/09 01:49:31;;;;;;;;;;;17.70;54.30;;;;;;2017760;28;20295;-73
2022/05/09 01:50:29;;;;;;;;;;;17.70;54.30;;;;;;2017030;28;20046;-73
2022/05/09 01:51:28;;;;;;;;;;;17.70;54.30;;;;;;2017796;28;19917;-73
2022/05/09 01:52:26;;;;;;;;;;;17.70;54.30;;;;;;2017029;28;19952;-73
2022/05/09 01:53:25;;;;;;;;;;;17.70;54.30;;;;;;2016778;28;19919;-73
2022/05/09 01:54:23;;;;;;;;;;;17.70;54.30;;;;;;2016653;28;19924;-73
2022/05/09 01:55:24;;;;;;;;;;;17.70;54.30;;;;;;2017515;28;19913;-73
2022/05/09 01:56:26;;;;;;;;;;;17.70;54.30;;;;;;2017625;28;19924;-74
2022/05/09 01:57:25;;;;;;;;;;;17.70;54.30;;;;;;2019075;28;19988;-73
2022/05/09 01:58:24;;;;;;;;;;;17.70;54.30;;;;;;2020170;28;19909;-73
2022/05/09 01:59:23;;;;;;;;;;;17.70;54.30;;;;;;2019030;28;19909;-73
2022/05/09 02:00:22;;;;;;;;;;;17.70;54.30;;;;;;2018440;28;19917;-73
2022/05/09 02:01:22;;;;;;;;;;;17.70;54.30;;;;;;2019032;28;20344;-73
2022/05/09 02:02:20;;;;;;;;;;;17.70;54.30;;;;;;2020876;28;19917;-74
2022/05/09 02:03:19;;;;;;;;;;;17.70;54.30;;;;;;2020712;28;19909;-73
2022/05/09 02:04:18;;;;;;;;;;;17.70;54.30;;;;;;2021078;28;19943;-74
2022/05/09 02:05:16;;;;;;;;;;;17.70;54.30;;;;;;2021816;28;19940;-74
2022/05/09 02:06:15;;;;;;;;;;;17.70;54.30;;;;;;2021812;28;19915;-74
2022/05/09 02:07:14;;;;;;;;;;;17.70;54.30;;;;;;2021183;28;19909;-73
2022/05/09 02:08:13;;;;;;;;;;;17.70;54.30;;;;;;2017225;28;19959;-74
2022/05/09 02:09:12;;;;;;;;;;;17.70;54.30;;;;;;2015328;28;19935;-74
2022/05/09 02:10:12;;;;;;;;;;;17.70;54.30;;;;;;2017153;28;19937;-73
2022/05/09 02:11:11;;;;;;;;;;;17.70;54.30;;;;;;2014739;28;20336;-73
2022/05/09 02:12:11;;;;;;;;;;;17.70;54.30;;;;;;2013690;28;19909;-73
2022/05/09 02:13:09;;;;;;;;;;;17.60;54.20;;;;;;2021114;28;19912;-74
2022/05/09 02:14:08;;;;;;;;;;;17.60;54.20;;;;;;2021208;28;19912;-73
2022/05/09 02:15:08;;;;;;;;;;;17.60;54.20;;;;;;2014033;28;19959;-73
2022/05/09 02:16:06;;;;;;;;;;;17.60;54.20;;;;;;2013699;28;19909;-74
2022/05/09 02:17:06;;;;;;;;;;;17.70;54.30;;;;;;2013533;28;20254;-73
2022/05/09 02:18:05;;;;;;;;;;;17.70;54.30;;;;;;2013780;28;19947;-73
2022/05/09 02:19:05;;;;;;;;;;;17.60;54.30;;;;;;2013558;28;19916;-73
2022/05/09 02:20:05;;;;;;;;;;;17.70;54.30;;;;;;2013700;28;19909;-72
2022/05/09 02:21:04;;;;;;;;;;;17.70;54.30;;;;;;2013898;28;19948;-72
2022/05/09 02:22:03;;;;;;;;;;;17.60;54.30;;;;;;2013786;28;20418;-73
2022/05/09 02:23:01;;;;;;;;;;;17.60;54.30;;;;;;2013665;28;19916;-73
2022/05/09 02:24:00;;;;;;;;;;;17.70;54.50;;;;;;2013791;28;19913;-73
2022/05/09 02:24:58;;;;;;;;;;;17.70;54.40;;;;;;2013796;28;19990;-72
2022/05/09 02:25:57;;;;;;;;;;;17.70;54.40;;;;;;2013610;28;19909;-74
2022/05/09 02:26:56;;;;;;;;;;;17.70;54.40;;;;;;2013517;28;19952;-74
2022/05/09 02:27:56;;;;;;;;;;;17.70;54.30;;;;;;2013730;28;20254;-73
2022/05/09 02:28:54;;;;;;;;;;;17.60;54.30;;;;;;2012665;28;19909;-74
2022/05/09 02:29:53;;;;;;;;;;;17.70;54.40;;;;;;2004822;28;20376;-74
2022/05/09 02:30:52;;;;;;;;;;;17.60;54.30;;;;;;2012654;28;19913;-74
2022/05/09 02:31:51;;;;;;;;;;;17.60;54.40;;;;;;2013636;28;20012;-73
2022/05/09 02:32:50;;;;;;;;;;;17.60;54.30;;;;;;2013601;28;20069;-73
2022/05/09 02:33:48;;;;;;;;;;;17.60;54.20;;;;;;2013737;28;19920;-73
2022/05/09 02:34:46;;;;;;;;;;;17.60;54.20;;;;;;2013524;28;19931;-73
2022/05/09 02:35:46;;;;;;;;;;;17.60;54.30;;;;;;2013462;28;20333;-74
2022/05/09 02:36:45;;;;;;;;;;;17.60;54.20;;;;;;2013634;28;19917;-73
2022/05/09 02:37:43;;;;;;;;;;;17.60;54.10;;;;;;2013562;28;19916;-74
2022/05/09 02:38:42;;;;;;;;;;;17.60;54.10;;;;;;2013456;28;19915;-73
2022/05/09 02:39:41;;;;;;;;;;;17.60;54.20;;;;;;2013630;28;19916;-73
2022/05/09 02:40:40;;;;;;;;;;;17.60;54.20;;;;;;2013745;28;20388;-73
2022/05/09 02:41:38;;;;;;;;;;;17.60;54.20;;;;;;2013563;28;19914;-74
2022/05/09 02:42:37;;;;;;;;;;;17.60;54.20;;;;;;2013631;28;19921;-74
2022/05/09 02:43:35;;;;;;;;;;;17.60;54.20;;;;;;2013754;28;19975;-73
2022/05/09 02:44:34;;;;;;;;;;;17.60;54.10;;;;;;2013595;28;20297;-73
2022/05/09 02:45:33;;;;;;;;;;;17.60;54.20;;;;;;2013651;28;19909;-73
2022/05/09 02:46:32;;;;;;;;;;;17.60;54.20;;;;;;2013468;28;20276;-73
2022/05/09 02:47:30;;;;;;;;;;;17.60;54.20;;;;;;2013399;28;19931;-73
2022/05/09 02:48:38;;;;;;;;;;;17.60;54.20;;;;;;2012724;28;19913;-75
2022/05/09 02:49:36;;;;;;;;;;;17.60;54.10;;;;;;2012879;28;19952;-74
2022/05/09 02:50:35;;;;;;;;;;;17.60;54.20;;;;;;2013282;28;20384;-73
2022/05/09 02:51:33;;;;;;;;;;;17.60;54.20;;;;;;2012845;28;20037;-75
2022/05/09 02:52:33;;;;;;;;;;;17.60;54.20;;;;;;2012900;28;19966;-72
2022/05/09 02:53:32;;;;;;;;;;;17.60;54.20;;;;;;2013425;28;20386;-73
2022/05/09 02:54:30;;;;;;;;;;;17.60;54.20;;;;;;2013421;28;19932;-73
2022/05/09 02:55:31;;;;;;;;;;;17.60;54.20;;;;;;2013306;28;19910;-73
2022/05/09 02:56:29;;;;;;;;;;;17.60;54.20;;;;;;2013353;28;19931;-74
2022/05/09 02:57:28;;;;;;;;;;;17.60;54.20;;;;;;2013366;28;19913;-74
2022/05/09 02:58:26;;;;;;;;;;;17.60;54.30;;;;;;2013394;28;19917;-73
2022/05/09 02:59:25;;;;;;;;;;;17.60;54.20;;;;;;2013495;28;19924;-74
2022/05/09 03:00:25;;;;;;;;;;;17.60;54.20;;;;;;2013370;28;20008;-73
2022/05/09 03:01:24;;;;;;;;;;;17.60;54.20;;;;;;2013538;28;20008;-74
2022/05/09 03:02:22;;;;;;;;;;;17.60;54.20;;;;;;2012938;28;19921;-73
2022/05/09 03:04:41;;;;;;;;;;;17.60;54.20;;;;;;2013393;28;19917;-73
2022/05/09 03:05:40;;;;;;;;;;;17.60;54.20;;;;;;2013297;28;19909;-73
2022/05/09 03:06:38;;;;;;;;;;;17.60;54.10;;;;;;2013183;28;19910;-73
2022/05/09 03:07:37;;;;;;;;;;;17.60;54.20;;;;;;2013479;28;19909;-74
2022/05/09 03:08:35;;;;;;;;;;;17.60;54.10;;;;;;2013429;28;20248;-75
2022/05/09 03:09:35;;;;;;;;;;;17.60;54.00;;;;;;2012584;28;19909;-72
2022/05/09 03:10:34;;;;;;;;;;;17.60;54.10;;;;;;2013068;28;20065;-73
2022/05/09 03:11:32;;;;;;;;;;;17.60;54.10;;;;;;2012368;28;20065;-73
2022/05/09 03:12:31;;;;;;;;;;;17.60;54.10;;;;;;2012485;28;20427;-73
2022/05/09 03:13:29;;;;;;;;;;;17.60;54.10;;;;;;2013074;28;19986;-73
2022/05/09 03:14:28;;;;;;;;;;;17.60;54.10;;;;;;2013301;28;19967;-73
2022/05/09 03:15:27;;;;;;;;;;;17.60;54.10;;;;;;2013346;28;19923;-73
2022/05/09 03:16:25;;;;;;;;;;;17.50;53.90;;;;;;2013216;28;19909;-72
2022/05/09 03:17:23;;;;;;;;;;;17.60;54.10;;;;;;2013428;28;20348;-73
2022/05/09 03:18:23;;;;;;;;;;;17.60;54.10;;;;;;2013180;28;19920;-74
2022/05/09 03:19:22;;;;;;;;;;;17.50;54.00;;;;;;2013240;28;20284;-74
2022/05/09 03:20:21;;;;;;;;;;;17.50;54.00;;;;;;2013196;28;19909;-74
2022/05/09 03:21:19;;;;;;;;;;;17.60;54.10;;;;;;2013082;28;19984;-74
2022/05/09 03:22:17;;;;;;;;;;;17.60;54.10;;;;;;2013216;28;19913;-73
2022/05/09 03:23:16;;;;;;;;;;;17.50;54.00;;;;;;2013217;28;20368;-73
2022/05/09 03:24:15;;;;;;;;;;;17.50;54.00;;;;;;2012476;28;19913;-73
2022/05/09 03:25:13;;;;;;;;;;;17.60;54.10;;;;;;2012536;28;19948;-73
2022/05/09 03:26:12;;;;;;;;;;;17.60;54.10;;;;;;2013067;28;19909;-73
2022/05/09 03:27:14;;;;;;;;;;;17.60;54.10;;;;;;2013059;28;19908;-75
2022/05/09 03:28:15;;;;;;;;;;;17.60;54.10;;;;;;2013073;28;19917;-72
2022/05/09 03:29:13;;;;;;;;;;;17.50;54.00;;;;;;2013006;28;19909;-73
2022/05/09 03:30:13;;;;;;;;;;;17.60;54.10;;;;;;2020165;28;19960;-72
2022/05/09 03:31:13;;;;;;;;;;;17.50;54.00;;;;;;2020377;28;20032;-72
2022/05/09 03:32:12;;;;;;;;;;;17.50;54.00;;;;;;2012199;28;19916;-72
2022/05/09 03:33:11;;;;;;;;;;;17.50;54.00;;;;;;2012276;28;20352;-73
2022/05/09 03:34:10;;;;;;;;;;;17.50;54.00;;;;;;2012866;28;20004;-73
2022/05/09 03:35:17;;;;;;;;;;;17.50;54.00;;;;;;2012834;28;19913;-73
2022/05/09 03:36:15;;;;;;;;;;;17.50;54.00;;;;;;2012950;28;19920;-73
2022/05/09 03:37:14;;;;;;;;;;;17.50;54.00;;;;;;2012844;28;19990;-73
2022/05/09 03:38:12;;;;;;;;;;;17.50;54.00;;;;;;2013108;28;19916;-73
2022/05/09 03:39:11;;;;;;;;;;;17.50;54.10;;;;;;2013356;28;19909;-73
2022/05/09 03:40:09;;;;;;;;;;;17.50;54.00;;;;;;2013102;28;19959;-73
2022/05/09 03:41:08;;;;;;;;;;;17.50;54.00;;;;;;2012213;28;20321;-72
2022/05/09 03:42:06;;;;;;;;;;;17.50;54.00;;;;;;2012957;28;20007;-73
2022/05/09 03:43:06;;;;;;;;;;;17.50;54.00;;;;;;2013007;28;19909;-74
2022/05/09 03:44:05;;;;;;;;;;;17.50;54.00;;;;;;2013054;28;19972;-73
2022/05/09 03:45:04;;;;;;;;;;;17.50;54.00;;;;;;2012893;28;20000;-72
2022/05/09 03:46:03;;;;;;;;;;;17.50;54.00;;;;;;2012135;28;19916;-73
2022/05/09 03:47:01;;;;;;;;;;;17.50;54.00;;;;;;2012184;28;19945;-72
2022/05/09 03:48:03;;;;;;;;;;;17.50;54.00;;;;;;2012853;28;20047;-73
2022/05/09 03:49:02;;;;;;;;;;;17.50;54.00;;;;;;2012953;28;19909;-74
2022/05/09 03:50:00;;;;;;;;;;;17.50;54.00;;;;;;2012763;28;19937;-73
2022/05/09 03:51:01;;;;;;;;;;;17.50;54.00;;;;;;2013074;28;20253;-73
2022/05/09 03:51:59;;;;;;;;;;;17.50;54.00;;;;;;2013044;28;19909;-73
2022/05/09 03:52:58;;;;;;;;;;;17.50;54.00;;;;;;2013092;28;19919;-74
2022/05/09 03:53:57;;;;;;;;;;;17.50;54.10;;;;;;2012893;28;19932;-74
2022/05/09 03:54:57;;;;;;;;;;;17.40;54.00;;;;;;2012383;28;19913;-73
2022/05/09 03:55:55;;;;;;;;;;;17.50;54.10;;;;;;2012601;28;19921;-74
2022/05/09 03:56:54;;;;;;;;;;;17.50;54.10;;;;;;2012904;28;19913;-73
2022/05/09 03:57:53;;;;;;;;;;;17.50;54.20;;;;;;2012830;28;19940;-73
2022/05/09 03:58:52;;;;;;;;;;;17.50;54.20;;;;;;2012917;28;19913;-73
2022/05/09 03:59:50;;;;;;;;;;;17.50;54.80;;;;;;2012955;28;20226;-73
2022/05/09 04:00:49;;;;;;;;;;;17.50;54.20;;;;;;2020398;28;19952;-74
2022/05/09 04:01:47;;;;;;;;;;;17.50;54.20;;;;;;2019938;28;19938;-74
2022/05/09 04:02:46;;;;;;;;;;;17.50;54.20;;;;;;2013507;28;19944;-74
2022/05/09 04:03:46;;;;;;;;;;;17.50;54.20;;;;;;2013024;28;19958;-74
2022/05/09 04:04:45;;;;;;;;;;;17.50;54.20;;;;;;2013033;28;19948;-73
2022/05/09 04:05:43;;;;;;;;;;;17.50;54.10;;;;;;2012972;28;20357;-74
2022/05/09 04:06:42;;;;;;;;;;;17.50;54.10;;;;;;2012795;28;19909;-73
2022/05/09 04:07:40;;;;;;;;;;;17.50;54.10;;;;;;2012806;28;19909;-74
2022/05/09 04:08:38;;;;;;;;;;;17.50;54.10;;;;;;2012896;28;19909;-74
2022/05/09 04:09:37;;;;;;;;;;;17.50;54.20;;;;;;2013025;28;19910;-74
2022/05/09 04:10:37;;;;;;;;;;;17.50;54.10;;;;;;2012996;28;20062;-73
2022/05/09 04:11:35;;;;;;;;;;;17.50;54.10;;;;;;2012672;28;19909;-74
2022/05/09 04:12:35;;;;;;;;;;;17.50;54.20;;;;;;2013102;28;19909;-74
2022/05/09 04:13:34;;;;;;;;;;;17.50;54.20;;;;;;2012980;28;19909;-73
2022/05/09 04:17:10;;;;;;;;;;;17.50;54.20;;;;;;2013496;28;20359;-74
2022/05/09 04:18:09;;;;;;;;;;;17.50;54.30;;;;;;2012812;28;19919;-73
2022/05/09 04:19:08;;;;;;;;;;;17.50;54.30;;;;;;2012828;28;19909;-73
2022/05/09 04:20:08;;;;;;;;;;;17.50;54.90;;;;;;2012934;28;20373;-74
2022/05/09 04:21:08;;;;;;;;;;;17.50;54.20;;;;;;2013142;28;20428;-74
2022/05/09 04:22:07;;;;;;;;;;;17.50;54.20;;;;;;2012859;28;19996;-74
2022/05/09 04:23:06;;;;;;;;;;;17.50;54.10;;;;;;2013374;28;19915;-73
2022/05/09 04:24:06;;;;;;;;;;;17.50;54.10;;;;;;2013053;28;20292;-72
2022/05/09 04:25:05;;;;;;;;;;;17.50;54.10;;;;;;2012847;28;19957;-73
2022/05/09 04:26:04;;;;;;;;;;;17.50;54.20;;;;;;2013030;28;19962;-72
2022/05/09 04:27:04;;;;;;;;;;;17.50;54.10;;;;;;2012103;28;20359;-74
2022/05/09 04:28:04;;;;;;;;;;;17.50;54.10;;;;;;2012386;28;19940;-75
2022/05/09 04:29:03;;;;;;;;;;;17.50;54.10;;;;;;2012945;28;20226;-72
2022/05/09 04:30:02;;;;;;;;;;;17.50;54.10;;;;;;2012796;28;19915;-73
2022/05/09 04:31:00;;;;;;;;;;;17.50;54.10;;;;;;2013028;28;19909;-74
2022/05/09 04:31:59;;;;;;;;;;;17.50;54.10;;;;;;2012900;28;19913;-73
2022/05/09 04:32:57;;;;;;;;;;;17.50;54.10;;;;;;2013099;28;20277;-73
2022/05/09 04:33:58;;;;;;;;;;;17.50;54.10;;;;;;2012933;28;19966;-73
2022/05/09 04:34:57;;;;;;;;;;;17.50;54.10;;;;;;2012886;28;19909;-73
2022/05/09 04:35:57;;;;;;;;;;;17.50;54.10;;;;;;2012938;28;19909;-73
2022/05/09 04:36:56;;;;;;;;;;;17.50;54.10;;;;;;2014308;28;19931;-74
2022/05/09 04:37:55;;;;;;;;;;;17.50;54.10;;;;;;2012428;28;19929;-73
2022/05/09 04:38:53;;;;;;;;;;;17.50;54.10;;;;;;2012920;28;19925;-72
2022/05/09 04:39:55;;;;;;;;;;;17.50;54.10;;;;;;2013015;28;19909;-72
2022/05/09 04:40:54;;;;;;;;;;;17.50;54.10;;;;;;2012876;28;20269;-73
2022/05/09 04:41:52;;;;;;;;;;;17.50;54.10;;;;;;2012910;28;19955;-73
2022/05/09 04:42:51;;;;;;;;;;;17.50;54.10;;;;;;2012814;28;19924;-73
2022/05/09 04:43:50;;;;;;;;;;;17.50;54.10;;;;;;2012804;28;19920;-72
2022/05/09 04:44:48;;;;;;;;;;;17.50;54.10;;;;;;2020239;28;19913;-72
2022/05/09 04:45:48;;;;;;;;;;;17.50;54.10;;;;;;2020208;28;19909;-73
2022/05/09 04:46:47;;;;;;;;;;;17.50;54.10;;;;;;2012075;28;19909;-73
2022/05/09 04:47:45;;;;;;;;;;;17.60;54.20;;;;;;2004194;28;20427;-74
2022/05/09 04:48:44;;;;;;;;;;;17.50;54.10;;;;;;2011882;28;19974;-72
2022/05/09 04:49:43;;;;;;;;;;;17.50;54.10;;;;;;2012689;28;19909;-73
2022/05/09 04:50:41;;;;;;;;;;;17.50;54.10;;;;;;2012970;28;19910;-73
2022/05/09 04:51:40;;;;;;;;;;;17.50;54.10;;;;;;2013121;28;20415;-74
2022/05/09 04:52:39;;;;;;;;;;;17.50;54.10;;;;;;2014172;28;20016;-72
2022/05/09 04:53:39;;;;;;;;;;;17.50;54.10;;;;;;2014752;28;20353;-73
2022/05/09 04:54:37;;;;;;;;;;;17.50;54.10;;;;;;2015084;28;19909;-72
2022/05/09 04:55:37;;;;;;;;;;;17.50;54.10;;;;;;2014846;28;19915;-73
2022/05/09 04:56:36;;;;;;;;;;;17.50;54.10;;;;;;2014708;28;20043;-72
2022/05/09 04:57:34;;;;;;;;;;;17.50;54.10;;;;;;2014056;28;19909;-73
2022/05/09 04:58:33;;;;;;;;;;;17.50;54.10;;;;;;2014051;28;19909;-73
2022/05/09 04:59:31;;;;;;;;;;;17.50;54.10;;;;;;2014597;28;19909;-73
2022/05/09 05:00:31;;;;;;;;;;;17.50;54.10;;;;;;2014525;28;19913;-73
2022/05/09 05:01:30;;;;;;;;;;;17.50;54.10;;;;;;2014312;28;19909;-72
2022/05/09 05:02:28;;;;;;;;;;;17.50;54.10;;;;;;2014086;28;19927;-73
2022/05/09 05:03:27;;;;;;;;;;;17.50;54.10;;;;;;2021615;28;20324;-73
2022/05/09 05:04:27;;;;;;;;;;;17.50;54.10;;;;;;2021531;28;19921;-73
2022/05/09 05:05:26;;;;;;;;;;;17.50;54.10;;;;;;2014639;28;19927;-73
2022/05/09 05:06:24;;;;;;;;;;;17.50;54.10;;;;;;2014216;28;20027;-72
2022/05/09 05:07:22;;;;;;;;;;;17.50;54.10;;;;;;2014279;28;20065;-73
2022/05/09 05:08:21;;;;;;;;;;;17.50;54.10;;;;;;2014141;28;19964;-73
2022/05/09 05:09:20;;;;;;;;;;;17.50;54.10;;;;;;2014273;28;19960;-73
2022/05/09 05:10:19;;;;;;;;;;;17.50;54.30;;;;;;2021396;28;19966;-72
2022/05/09 05:11:17;;;;;;;;;;;17.50;54.10;;;;;;2021552;28;19909;-73
2022/05/09 05:12:16;;;;;;;;;;;17.50;54.10;;;;;;2014613;28;19936;-72
2022/05/09 05:13:15;;;;;;;;;;;17.50;54.10;;;;;;2014142;28;19909;-72
2022/05/09 05:14:14;;;;;;;;;;;17.50;54.00;;;;;;2014138;28;19916;-72
2022/05/09 05:15:13;;;;;;;;;;;17.50;54.10;;;;;;2013136;28;19916;-73
2022/05/09 05:16:11;;;;;;;;;;;17.50;54.00;;;;;;2013584;28;19909;-73
2022/05/09 05:17:11;;;;;;;;;;;17.50;54.00;;;;;;2013910;28;19959;-72
2022/05/09 05:18:09;;;;;;;;;;;17.50;54.00;;;;;;2014183;28;19996;-72
2022/05/09 05:19:07;;;;;;;;;;;17.50;54.00;;;;;;2014025;28;20351;-73
2022/05/09 05:20:09;;;;;;;;;;;17.50;54.00;;;;;;2014168;28;19971;-73
2022/05/09 05:21:09;;;;;;;;;;;17.50;54.00;;;;;;2014125;28;20000;-73
2022/05/09 05:22:09;;;;;;;;;;;17.50;54.00;;;;;;2014074;28;19960;-73
2022/05/09 05:23:09;;;;;;;;;;;17.60;54.10;;;;;;2014239;28;19916;-72
2022/05/09 05:24:08;;;;;;;;;;;17.60;54.10;;;;;;2014068;28;20360;-73
2022/05/09 05:25:06;;;;;;;;;;;17.60;54.10;;;;;;2013457;28;19910;-73
2022/05/09 05:26:05;;;;;;;;;;;17.60;54.10;;;;;;2013573;28;19931;-74
2022/05/09 05:27:04;;;;;;;;;;;17.60;54.10;;;;;;2013898;28;20362;-73
2022/05/09 05:28:05;;;;;;;;;;;17.60;54.00;;;;;;2014051;28;19909;-72
2022/05/09 05:29:03;;;;;;;;;;;17.60;54.10;;;;;;2014260;28;20310;-74
2022/05/09 05:30:03;;;;;;;;;;;17.60;54.10;;;;;;2013950;28;19917;-74
2022/05/09 05:31:12;;;;;;;;;;;17.60;54.10;;;;;;2013911;28;20398;-72
2022/05/09 05:32:19;;;;;;;;;;;17.60;54.10;;;;;;2014020;28;19917;-74
2022/05/09 05:33:17;;;;;;;;;;;17.60;54.00;;;;;;2013881;28;20002;-73
2022/05/09 05:34:16;;;;;;;;;;;17.60;54.00;;;;;;2014066;28;20051;-73
2022/05/09 05:35:16;;;;;;;;;;;17.60;53.90;;;;;;2013869;28;20357;-74
2022/05/09 05:36:16;;;;;;;;;;;17.60;54.00;;;;;;2013747;28;19916;-73
2022/05/09 05:37:16;;;;;;;;;;;17.60;54.00;;;;;;2013893;28;20004;-74
2022/05/09 05:38:14;;;;;;;;;;;17.60;54.10;;;;;;2014051;28;20245;-73
2022/05/09 05:39:15;;;;;;;;;;;17.60;54.10;;;;;;2014059;28;20008;-74
2022/05/09 05:40:14;;;;;;;;;;;17.60;54.10;;;;;;2014091;28;19909;-73
2022/05/09 05:41:12;;;;;;;;;;;17.60;54.00;;;;;;2014395;28;19909;-74
2022/05/09 05:42:11;;;;;;;;;;;17.60;54.00;;;;;;2014275;28;19956;-73
2022/05/09 05:43:12;;;;;;;;;;;17.60;54.00;;;;;;2013866;28;20264;-72
2022/05/09 05:44:13;;;;;;;;;;;17.70;54.10;;;;;;2021149;28;19920;-73
2022/05/09 05:45:13;;;;;;;;;;;17.60;53.90;;;;;;2021173;28;19931;-74
2022/05/09 05:46:12;;;;;;;;;;;17.60;53.90;;;;;;2013307;28;19917;-73
2022/05/09 05:47:12;;;;;;;;;;;17.60;53.90;;;;;;2013772;28;19945;-75
2022/05/09 05:48:10;;;;;;;;;;;17.60;53.90;;;;;;2013985;28;19920;-74
2022/05/09 05:49:09;;;;;;;;;;;17.70;54.00;;;;;;2014111;28;20319;-73
2022/05/09 05:50:09;;;;;;;;;;;17.70;54.00;;;;;;2013897;28;19913;-74
2022/05/09 05:51:11;;;;;;;;;;;17.60;53.90;;;;;;2013793;28;19949;-75